createdAt,value
2018-01-27T00:00:06.148Z,-79
2018-01-27T00:01:07.001Z,-79
2018-01-27T00:02:09.686Z,-80
2018-01-27T00:03:05.689Z,-80
2018-01-27T00:04:05.844Z,-80
2018-01-27T00:05:05.083Z,-79
2018-01-27T00:06:06.072Z,-80
2018-01-27T00:07:05.945Z,-80
2018-01-27T00:08:08.443Z,-81
2018-01-27T00:09:05.319Z,-80
2018-01-27T00:10:05.988Z,-80
2018-01-27T00:11:06.647Z,-80
2018-01-27T00:12:06.082Z,-79
2018-01-27T00:13:06.770Z,-75
2018-01-27T00:14:06.411Z,-78
2018-01-27T00:15:05.512Z,-77
2018-01-27T00:16:05.711Z,-77
2018-01-27T00:17:04.871Z,-76
2018-01-27T00:18:06.079Z,-78
2018-01-27T00:19:05.972Z,-77
2018-01-27T00:20:06.498Z,-77
2018-01-27T00:21:05.757Z,-77
2018-01-27T00:22:05.337Z,-78
2018-01-27T00:23:06.296Z,-80
2018-01-27T00:24:06.035Z,-79
2018-01-27T00:25:05.454Z,-79
2018-01-27T00:26:05.833Z,-79
2018-01-27T00:27:05.834Z,-80
2018-01-27T00:28:05.664Z,-79
2018-01-27T00:29:06.465Z,-79
2018-01-27T00:30:07.441Z,-80
2018-01-27T00:31:06.171Z,-80
2018-01-27T00:32:06.609Z,-80
2018-01-27T00:33:07.567Z,-80
2018-01-27T00:34:06.077Z,-80
2018-01-27T00:35:06.932Z,-81
2018-01-27T00:36:05.813Z,-79
2018-01-27T00:37:05.071Z,-80
2018-01-27T00:38:05.795Z,-79
2018-01-27T00:39:07.267Z,-79
2018-01-27T00:40:07.807Z,-79
2018-01-27T00:41:05.139Z,-79
2018-01-27T00:42:05.789Z,-79
2018-01-27T00:43:06.412Z,-79
2018-01-27T00:44:08.119Z,-80
2018-01-27T00:45:05.309Z,-80
2018-01-27T00:46:07.309Z,-80
2018-01-27T00:47:09.027Z,-80
2018-01-27T00:48:07.378Z,-80
2018-01-27T00:49:06.581Z,-80
2018-01-27T00:50:09.375Z,-76
2018-01-27T00:51:07.604Z,-76
2018-01-27T00:52:05.458Z,-75
2018-01-27T00:53:06.493Z,-75
2018-01-27T00:54:05.272Z,-77
2018-01-27T00:55:05.597Z,-77
2018-01-27T00:56:06.035Z,-77
2018-01-27T00:57:05.761Z,-77
2018-01-27T00:58:06.202Z,-76
2018-01-27T00:59:05.593Z,-77
2018-01-27T01:00:06.462Z,-76
2018-01-27T01:01:05.812Z,-77
2018-01-27T01:02:07.284Z,-77
2018-01-27T01:03:04.859Z,-77
2018-01-27T01:04:06.070Z,-77
2018-01-27T01:05:05.091Z,-77
2018-01-27T01:06:06.205Z,-77
2018-01-27T01:07:07.888Z,-78
2018-01-27T01:08:06.223Z,-77
2018-01-27T01:09:06.594Z,-76
2018-01-27T01:10:07.020Z,-76
2018-01-27T01:11:04.965Z,-76
2018-01-27T01:12:07.503Z,-76
2018-01-27T01:13:07.326Z,-75
2018-01-27T01:14:05.801Z,-75
2018-01-27T01:15:05.825Z,-76
2018-01-27T01:16:05.628Z,-75
2018-01-27T01:17:06.730Z,-77
2018-01-27T01:18:04.728Z,-77
2018-01-27T01:19:05.762Z,-77
2018-01-27T01:20:07.559Z,-77
2018-01-27T01:21:04.756Z,-77
2018-01-27T01:22:05.231Z,-77
2018-01-27T01:23:05.662Z,-78
2018-01-27T01:24:05.544Z,-77
2018-01-27T01:25:06.844Z,-77
2018-01-27T01:26:05.963Z,-76
2018-01-27T01:27:05.042Z,-78
2018-01-27T01:28:07.081Z,-77
2018-01-27T01:29:06.619Z,-77
2018-01-27T01:30:05.386Z,-77
2018-01-27T01:31:05.526Z,-77
2018-01-27T01:32:07.674Z,-77
2018-01-27T01:33:06.362Z,-78
2018-01-27T01:34:05.587Z,-78
2018-01-27T01:35:05.217Z,-78
2018-01-27T01:36:06.729Z,-79
2018-01-27T01:37:06.459Z,-79
2018-01-27T01:38:06.171Z,-79
2018-01-27T01:39:06.401Z,-79
2018-01-27T01:40:05.035Z,-79
2018-01-27T01:41:05.219Z,-80
2018-01-27T01:42:04.987Z,-80
2018-01-27T01:43:07.259Z,-81
2018-01-27T01:44:07.332Z,-81
2018-01-27T01:45:06.245Z,-81
2018-01-27T01:46:05.107Z,-77
2018-01-27T01:47:06.751Z,-76
2018-01-27T01:48:05.069Z,-76
2018-01-27T01:49:05.074Z,-76
2018-01-27T01:50:05.976Z,-75
2018-01-27T01:51:06.546Z,-76
2018-01-27T01:52:06.392Z,-76
2018-01-27T01:53:05.027Z,-77
2018-01-27T01:54:07.487Z,-77
2018-01-27T01:55:05.364Z,-77
2018-01-27T01:56:04.973Z,-77
2018-01-27T01:57:05.901Z,-78
2018-01-27T01:58:05.115Z,-77
2018-01-27T01:59:09.099Z,-78
2018-01-27T02:00:06.454Z,-78
2018-01-27T02:01:06.297Z,-78
2018-01-27T02:02:05.813Z,-77
2018-01-27T02:03:05.157Z,-78
2018-01-27T02:04:07.127Z,-77
2018-01-27T02:05:05.255Z,-75
2018-01-27T02:06:05.966Z,-75
2018-01-27T02:07:05.380Z,-77
2018-01-27T02:08:06.252Z,-77
2018-01-27T02:09:06.207Z,-77
2018-01-27T02:10:05.503Z,-77
2018-01-27T02:11:06.389Z,-77
2018-01-27T02:12:07.125Z,-77
2018-01-27T02:13:05.706Z,-77
2018-01-27T02:14:06.577Z,-77
2018-01-27T02:15:05.373Z,-78
2018-01-27T02:16:06.421Z,-79
2018-01-27T02:17:06.817Z,-79
2018-01-27T02:18:06.557Z,-79
2018-01-27T02:19:05.829Z,-79
2018-01-27T02:20:05.987Z,-79
2018-01-27T02:21:06.713Z,-79
2018-01-27T02:22:05.861Z,-80
2018-01-27T02:23:08.293Z,-80
2018-01-27T02:24:07.844Z,-80
2018-01-27T02:25:05.244Z,-76
2018-01-27T02:26:06.208Z,-76
2018-01-27T02:27:05.204Z,-75
2018-01-27T02:28:05.676Z,-77
2018-01-27T02:29:05.967Z,-77
2018-01-27T02:30:05.329Z,-77
2018-01-27T02:31:06.948Z,-78
2018-01-27T02:32:06.060Z,-77
2018-01-27T02:33:05.769Z,-77
2018-01-27T02:34:05.944Z,-77
2018-01-27T02:35:06.561Z,-80
2018-01-27T02:36:05.395Z,-78
2018-01-27T02:37:06.787Z,-80
2018-01-27T02:38:06.067Z,-80
2018-01-27T02:39:05.922Z,-80
2018-01-27T02:40:05.686Z,-81
2018-01-27T02:41:05.361Z,-79
2018-01-27T02:42:05.298Z,-81
2018-01-27T02:43:06.056Z,-80
2018-01-27T02:44:05.961Z,-80
2018-01-27T02:45:06.077Z,-77
2018-01-27T02:46:05.263Z,-77
2018-01-27T02:47:05.372Z,-78
2018-01-27T02:48:05.405Z,-77
2018-01-27T02:49:06.225Z,-77
2018-01-27T02:50:06.211Z,-76
2018-01-27T02:51:07.034Z,-77
2018-01-27T02:52:07.454Z,-77
2018-01-27T02:53:05.358Z,-77
2018-01-27T02:54:05.141Z,-78
2018-01-27T02:55:05.076Z,-77
2018-01-27T02:56:06.031Z,-77
2018-01-27T02:57:06.593Z,-77
2018-01-27T02:58:05.115Z,-78
2018-01-27T02:59:06.047Z,-77
2018-01-27T03:00:05.402Z,-77
2018-01-27T03:01:06.682Z,-77
2018-01-27T03:02:06.086Z,-78
2018-01-27T03:03:06.528Z,-77
2018-01-27T03:04:06.134Z,-77
2018-01-27T03:05:05.688Z,-75
2018-01-27T03:06:05.271Z,-78
2018-01-27T03:07:05.062Z,-77
2018-01-27T03:08:05.329Z,-76
2018-01-27T03:09:05.550Z,-77
2018-01-27T03:10:05.019Z,-77
2018-01-27T03:11:05.193Z,-77
2018-01-27T03:12:05.062Z,-78
2018-01-27T03:13:05.386Z,-78
2018-01-27T03:14:05.516Z,-77
2018-01-27T03:15:06.092Z,-78
2018-01-27T03:16:05.011Z,-77
2018-01-27T03:17:06.057Z,-78
2018-01-27T03:18:05.090Z,-78
2018-01-27T03:19:05.471Z,-78
2018-01-27T03:20:04.870Z,-77
2018-01-27T03:21:05.595Z,-77
2018-01-27T03:22:06.050Z,-77
2018-01-27T03:23:06.124Z,-77
2018-01-27T03:24:05.466Z,-77
2018-01-27T03:25:05.813Z,-77
2018-01-27T03:26:05.966Z,-77
2018-01-27T03:27:06.044Z,-75
2018-01-27T03:28:05.833Z,-77
2018-01-27T03:29:05.372Z,-77
2018-01-27T03:30:06.332Z,-77
2018-01-27T03:31:05.424Z,-77
2018-01-27T03:32:05.962Z,-77
2018-01-27T03:33:05.953Z,-79
2018-01-27T03:34:06.226Z,-79
2018-01-27T03:35:06.250Z,-80
2018-01-27T03:36:06.643Z,-80
2018-01-27T03:37:05.255Z,-79
2018-01-27T03:38:07.450Z,-80
2018-01-27T03:39:06.302Z,-80
2018-01-27T03:40:05.964Z,-80
2018-01-27T03:41:05.581Z,-80
2018-01-27T03:42:05.504Z,-80
2018-01-27T03:43:07.848Z,-80
2018-01-27T03:44:07.486Z,-79
2018-01-27T03:45:05.799Z,-80
2018-01-27T03:46:06.265Z,-80
2018-01-27T03:47:06.467Z,-79
2018-01-27T03:48:07.055Z,-80
2018-01-27T03:49:07.025Z,-80
2018-01-27T03:50:06.431Z,-80
2018-01-27T03:51:05.409Z,-80
2018-01-27T03:52:09.013Z,-80
2018-01-27T03:53:06.050Z,-76
2018-01-27T03:54:07.462Z,-77
2018-01-27T03:55:09.091Z,-76
2018-01-27T03:56:06.912Z,-76
2018-01-27T03:57:07.295Z,-77
2018-01-27T03:58:08.908Z,-78
2018-01-27T03:59:06.253Z,-78
2018-01-27T04:00:06.024Z,-78
2018-01-27T04:01:06.052Z,-77
2018-01-27T04:02:05.931Z,-78
2018-01-27T04:03:06.293Z,-77
2018-01-27T04:04:05.275Z,-77
2018-01-27T04:06:05.233Z,-80
2018-01-27T04:07:08.934Z,-80
2018-01-27T04:08:10.489Z,-80
2018-01-27T04:09:05.847Z,-81
2018-01-27T04:10:06.413Z,-80
2018-01-27T04:11:05.168Z,-80
2018-01-27T04:12:06.192Z,-79
2018-01-27T04:13:07.795Z,-75
2018-01-27T04:14:07.345Z,-76
2018-01-27T04:15:06.622Z,-77
2018-01-27T04:16:05.476Z,-77
2018-01-27T04:17:07.099Z,-77
2018-01-27T04:18:09.193Z,-77
2018-01-27T04:19:05.598Z,-77
2018-01-27T04:20:06.668Z,-78
2018-01-27T04:21:09.738Z,-78
2018-01-27T04:22:08.978Z,-77
2018-01-27T04:23:06.521Z,-77
2018-01-27T04:24:06.272Z,-78
2018-01-27T04:25:05.880Z,-77
2018-01-27T04:26:05.650Z,-77
2018-01-27T04:27:07.380Z,-77
2018-01-27T04:28:06.369Z,-77
2018-01-27T04:29:05.921Z,-77
2018-01-27T04:30:05.251Z,-76
2018-01-27T04:31:06.736Z,-77
2018-01-27T04:32:07.159Z,-77
2018-01-27T04:33:06.713Z,-78
2018-01-27T04:34:08.085Z,-76
2018-01-27T04:35:06.873Z,-77
2018-01-27T04:36:05.396Z,-77
2018-01-27T04:37:06.426Z,-77
2018-01-27T04:38:06.492Z,-77
2018-01-27T04:39:05.473Z,-77
2018-01-27T04:40:05.625Z,-77
2018-01-27T04:41:05.019Z,-77
2018-01-27T04:42:08.488Z,-77
2018-01-27T04:43:05.991Z,-75
2018-01-27T04:44:06.483Z,-76
2018-01-27T04:45:05.552Z,-77
2018-01-27T04:46:06.395Z,-77
2018-01-27T04:47:05.770Z,-77
2018-01-27T04:48:06.774Z,-77
2018-01-27T04:49:05.279Z,-77
2018-01-27T04:50:10.064Z,-77
2018-01-27T04:51:08.549Z,-77
2018-01-27T04:52:13.515Z,-79
2018-01-27T04:53:05.421Z,-79
2018-01-27T04:54:08.462Z,-79
2018-01-27T04:55:11.273Z,-80
2018-01-27T04:56:08.651Z,-80
2018-01-27T04:57:12.107Z,-80
2018-01-27T04:58:08.462Z,-79
2018-01-27T04:59:10.767Z,-80
2018-01-27T05:00:10.155Z,-80
2018-01-27T05:01:08.111Z,-80
2018-01-27T05:02:19.579Z,-77
2018-01-27T05:03:08.081Z,-78
2018-01-27T05:04:08.986Z,-78
2018-01-27T05:05:07.456Z,-79
2018-01-27T05:06:08.596Z,-80
2018-01-27T05:07:12.585Z,-79
2018-01-27T05:08:11.469Z,-80
2018-01-27T05:09:16.001Z,-80
2018-01-27T05:10:08.497Z,-80
2018-01-27T05:11:07.697Z,-79
2018-01-27T05:12:06.470Z,-78
2018-01-27T05:13:09.718Z,-79
2018-01-27T05:14:09.587Z,-77
2018-01-27T05:15:08.520Z,-76
2018-01-27T05:16:08.243Z,-76
2018-01-27T05:17:06.657Z,-77
2018-01-27T05:18:07.701Z,-77
2018-01-27T05:19:10.871Z,-77
2018-01-27T05:20:08.508Z,-78
2018-01-27T05:21:09.863Z,-78
2018-01-27T05:22:11.162Z,-77
2018-01-27T05:23:08.328Z,-77
2018-01-27T05:24:07.549Z,-77
2018-01-27T05:25:11.527Z,-79
2018-01-27T05:26:08.097Z,-80
2018-01-27T05:27:07.107Z,-79
2018-01-27T05:28:09.729Z,-79
2018-01-27T05:29:09.618Z,-80
2018-01-27T05:30:08.373Z,-76
2018-01-27T05:31:10.152Z,-77
2018-01-27T05:32:09.098Z,-77
2018-01-27T05:33:08.978Z,-77
2018-01-27T05:34:07.163Z,-77
2018-01-27T05:35:06.875Z,-77
2018-01-27T05:36:07.246Z,-76
2018-01-27T05:37:07.156Z,-77
2018-01-27T05:38:06.522Z,-76
2018-01-27T05:39:06.663Z,-77
2018-01-27T05:40:08.100Z,-77
2018-01-27T05:41:05.866Z,-77
2018-01-27T05:42:09.793Z,-77
2018-01-27T05:43:08.193Z,-77
2018-01-27T05:44:11.369Z,-77
2018-01-27T05:45:10.467Z,-78
2018-01-27T05:46:07.377Z,-77
2018-01-27T05:47:07.108Z,-77
2018-01-27T05:48:07.084Z,-76
2018-01-27T05:49:07.807Z,-76
2018-01-27T05:50:05.803Z,-77
2018-01-27T05:51:05.930Z,-77
2018-01-27T05:52:05.250Z,-77
2018-01-27T05:53:05.205Z,-77
2018-01-27T05:54:05.319Z,-75
2018-01-27T05:55:05.466Z,-75
2018-01-27T05:56:05.231Z,-75
2018-01-27T05:59:05.590Z,-76
2018-01-27T06:00:05.120Z,-77
2018-01-27T06:01:05.419Z,-77
2018-01-27T06:02:05.280Z,-77
2018-01-27T06:03:05.175Z,-77
2018-01-27T06:04:05.461Z,-77
2018-01-27T06:05:05.055Z,-77
2018-01-27T06:06:05.209Z,-76
2018-01-27T06:07:05.315Z,-76
2018-01-27T06:08:05.183Z,-76
2018-01-27T06:09:05.281Z,-76
2018-01-27T06:10:04.968Z,-77
2018-01-27T06:11:05.361Z,-76
2018-01-27T06:12:05.232Z,-77
2018-01-27T06:13:05.151Z,-77
2018-01-27T06:14:05.453Z,-75
2018-01-27T06:15:05.017Z,-75
2018-01-27T06:16:05.015Z,-77
2018-01-27T06:17:05.200Z,-77
2018-01-27T06:18:05.200Z,-77
2018-01-27T06:19:05.141Z,-77
2018-01-27T06:20:05.075Z,-77
2018-01-27T06:21:05.067Z,-77
2018-01-27T06:22:05.364Z,-77
2018-01-27T06:23:05.234Z,-77
2018-01-27T06:24:05.402Z,-75
2018-01-27T06:25:05.467Z,-77
2018-01-27T06:26:05.153Z,-77
2018-01-27T06:27:05.147Z,-77
2018-01-27T06:28:05.316Z,-77
2018-01-27T06:29:05.231Z,-76
2018-01-27T06:30:05.350Z,-77
2018-01-27T06:31:05.245Z,-77
2018-01-27T06:32:05.295Z,-76
2018-01-27T06:33:05.303Z,-77
2018-01-27T06:34:05.339Z,-76
2018-01-27T06:35:05.128Z,-76
2018-01-27T06:36:05.617Z,-80
2018-01-27T06:37:05.575Z,-81
2018-01-27T06:38:05.822Z,-78
2018-01-27T06:39:05.108Z,-79
2018-01-27T06:40:07.464Z,-79
2018-01-27T06:41:05.438Z,-80
2018-01-27T06:42:05.480Z,-79
2018-01-27T06:43:05.538Z,-78
2018-01-27T06:44:05.378Z,-79
2018-01-27T06:45:05.306Z,-79
2018-01-27T06:46:05.382Z,-79
2018-01-27T06:47:05.513Z,-79
2018-01-27T06:48:05.382Z,-79
2018-01-27T06:49:05.311Z,-79
2018-01-27T06:50:05.776Z,-80
2018-01-27T06:51:05.581Z,-80
2018-01-27T06:52:05.559Z,-79
2018-01-27T06:53:04.562Z,-80
2018-01-27T06:54:04.616Z,-80
2018-01-27T06:55:04.429Z,-80
2018-01-27T06:56:04.599Z,-81
2018-01-27T06:57:04.706Z,-80
2018-01-27T06:58:04.576Z,-80
2018-01-27T06:59:04.471Z,-80
2018-01-27T07:00:04.462Z,-81
2018-01-27T07:01:04.560Z,-81
2018-01-27T07:02:04.808Z,-82
2018-01-27T07:03:04.522Z,-79
2018-01-27T07:04:04.710Z,-79
2018-01-27T07:05:04.471Z,-79
2018-01-27T07:06:05.031Z,-81
2018-01-27T07:07:04.852Z,-81
2018-01-27T07:08:04.649Z,-79
2018-01-27T07:09:04.582Z,-80
2018-01-27T07:10:04.751Z,-79
2018-01-27T07:11:04.462Z,-79
2018-01-27T07:12:04.749Z,-80
2018-01-27T07:13:04.794Z,-79
2018-01-27T07:14:04.633Z,-80
2018-01-27T07:15:04.787Z,-80
2018-01-27T07:16:04.804Z,-80
2018-01-27T07:17:04.651Z,-80
2018-01-27T07:18:04.748Z,-79
2018-01-27T07:19:04.838Z,-79
2018-01-27T07:20:04.834Z,-79
2018-01-27T07:21:04.671Z,-79
2018-01-27T07:22:04.445Z,-79
2018-01-27T07:23:04.837Z,-79
2018-01-27T07:24:04.757Z,-79
2018-01-27T07:25:04.755Z,-79
2018-01-27T07:26:04.832Z,-79
2018-01-27T07:27:04.484Z,-79
2018-01-27T07:28:04.616Z,-79
2018-01-27T07:29:04.806Z,-79
2018-01-27T07:30:04.860Z,-79
2018-01-27T07:31:04.904Z,-80
2018-01-27T07:32:04.915Z,-79
2018-01-27T07:33:04.542Z,-80
2018-01-27T07:34:04.592Z,-80
2018-01-27T07:35:04.828Z,-81
2018-01-27T07:36:04.743Z,-80
2018-01-27T07:37:04.661Z,-80
2018-01-27T07:38:04.900Z,-79
2018-01-27T07:39:05.023Z,-79
2018-01-27T07:40:05.850Z,-79
2018-01-27T07:41:05.019Z,-79
2018-01-27T07:42:04.658Z,-79
2018-01-27T07:43:04.777Z,-80
2018-01-27T07:44:04.768Z,-80
2018-01-27T07:45:05.007Z,-79
2018-01-27T07:46:04.556Z,-80
2018-01-27T07:47:04.482Z,-80
2018-01-27T07:48:04.915Z,-80
2018-01-27T07:49:04.811Z,-80
2018-01-27T07:50:04.677Z,-80
2018-01-27T07:51:04.617Z,-80
2018-01-27T07:52:04.624Z,-79
2018-01-27T07:53:04.823Z,-79
2018-01-27T07:54:04.615Z,-79
2018-01-27T07:55:04.723Z,-80
2018-01-27T07:56:04.849Z,-79
2018-01-27T07:57:04.838Z,-79
2018-01-27T07:58:04.970Z,-79
2018-01-27T07:59:04.816Z,-80
2018-01-27T08:00:04.859Z,-79
2018-01-27T08:01:05.104Z,-78
2018-01-27T08:02:04.932Z,-80
2018-01-27T08:03:04.939Z,-79
2018-01-27T08:04:04.579Z,-79
2018-01-27T08:05:05.018Z,-78
2018-01-27T08:06:04.774Z,-78
2018-01-27T08:07:04.852Z,-78
2018-01-27T08:08:04.855Z,-78
2018-01-27T08:09:04.814Z,-79
2018-01-27T08:10:04.883Z,-79
2018-01-27T08:11:04.618Z,-79
2018-01-27T08:12:04.965Z,-80
2018-01-27T08:13:04.957Z,-79
2018-01-27T08:14:04.925Z,-81
2018-01-27T08:15:04.704Z,-80
2018-01-27T08:16:04.913Z,-78
2018-01-27T08:17:04.940Z,-79
2018-01-27T08:18:04.568Z,-78
2018-01-27T08:19:04.744Z,-78
2018-01-27T08:20:04.828Z,-79
2018-01-27T08:21:05.526Z,-77
2018-01-27T08:22:05.027Z,-78
2018-01-27T08:23:04.718Z,-78
2018-01-27T08:24:04.978Z,-77
2018-01-27T08:25:04.929Z,-77
2018-01-27T08:26:04.669Z,-77
2018-01-27T08:27:04.858Z,-77
2018-01-27T08:28:05.268Z,-77
2018-01-27T08:29:04.861Z,-78
2018-01-27T08:30:05.112Z,-78
2018-01-27T08:31:04.918Z,-77
2018-01-27T08:32:05.071Z,-77
2018-01-27T08:33:04.967Z,-77
2018-01-27T08:36:19.057Z,-78
2018-01-27T08:37:04.890Z,-78
2018-01-27T08:38:04.748Z,-78
2018-01-27T08:39:05.034Z,-78
2018-01-27T08:40:04.852Z,-78
2018-01-27T08:41:04.846Z,-78
2018-01-27T08:42:05.018Z,-77
2018-01-27T08:43:05.068Z,-78
2018-01-27T08:44:05.102Z,-78
2018-01-27T08:45:04.915Z,-78
2018-01-27T08:46:05.039Z,-79
2018-01-27T08:47:04.956Z,-79
2018-01-27T08:48:04.878Z,-79
2018-01-27T08:49:04.923Z,-78
2018-01-27T08:50:04.876Z,-79
2018-01-27T08:51:04.919Z,-78
2018-01-27T08:52:04.971Z,-77
2018-01-27T08:53:05.721Z,-78
2018-01-27T08:54:06.536Z,-79
2018-01-27T08:55:06.056Z,-79
2018-01-27T08:56:06.089Z,-78
2018-01-27T08:57:06.143Z,-77
2018-01-27T08:58:07.445Z,-78
2018-01-27T08:59:06.203Z,-80
2018-01-27T09:00:05.595Z,-80
2018-01-27T09:01:05.984Z,-80
2018-01-27T09:02:06.214Z,-80
2018-01-27T09:03:05.595Z,-81
2018-01-27T09:04:06.126Z,-81
2018-01-27T09:05:05.994Z,-81
2018-01-27T09:06:30.102Z,-80
2018-01-27T09:07:04.907Z,-80
2018-01-27T09:08:04.737Z,-80
2018-01-27T09:09:05.093Z,-80
2018-01-27T09:10:21.206Z,-77
2018-01-27T09:11:21.297Z,-80
2018-01-27T09:13:21.148Z,-81
2018-01-27T09:14:21.257Z,-80
2018-01-27T09:15:21.253Z,-80
2018-01-27T09:16:21.332Z,-80
2018-01-27T09:17:21.332Z,-79
2018-01-27T09:18:21.208Z,-80
2018-01-27T09:19:21.152Z,-80
2018-01-27T09:20:20.912Z,-78
2018-01-27T09:21:20.981Z,-81
2018-01-27T09:22:21.487Z,-79
2018-01-27T09:23:21.137Z,-78
2018-01-27T09:24:20.035Z,-80
2018-01-27T09:25:20.074Z,-81
2018-01-27T09:26:20.004Z,-80
2018-01-27T09:27:20.627Z,-81
2018-01-27T09:28:20.380Z,-79
2018-01-27T09:29:19.704Z,-79
2018-01-27T09:30:20.432Z,-78
2018-01-27T09:31:20.238Z,-81
2018-01-27T09:32:19.895Z,-79
2018-01-27T09:33:19.922Z,-80
2018-01-27T09:34:19.805Z,-82
2018-01-27T09:35:20.094Z,-80
2018-01-27T09:36:20.016Z,-79
2018-01-27T09:37:20.138Z,-80
2018-01-27T09:38:20.156Z,-81
2018-01-27T09:39:20.019Z,-78
2018-01-27T09:40:20.145Z,-80
2018-01-27T09:41:20.110Z,-80
2018-01-27T09:42:19.951Z,-79
2018-01-27T09:43:20.149Z,-81
2018-01-27T09:44:20.019Z,-80
2018-01-27T09:45:19.958Z,-81
2018-01-27T09:46:19.865Z,-79
2018-01-27T09:47:21.730Z,-79
2018-01-27T09:48:21.208Z,-77
2018-01-27T09:49:20.243Z,-77
2018-01-27T09:50:22.177Z,-77
2018-01-27T09:51:20.205Z,-79
2018-01-27T09:52:21.795Z,-78
2018-01-27T09:53:19.977Z,-76
2018-01-27T09:54:20.141Z,-76
2018-01-27T09:55:20.196Z,-78
2018-01-27T09:56:19.940Z,-77
2018-01-27T09:57:53.934Z,-78
2018-01-27T09:58:24.357Z,-77
2018-01-27T09:59:25.162Z,-78
2018-01-27T10:00:22.875Z,-77
2018-01-27T10:01:23.817Z,-77
2018-01-27T10:02:25.401Z,-79
2018-01-27T10:03:24.458Z,-78
2018-01-27T10:04:21.404Z,-77
2018-01-27T10:05:25.543Z,-77
2018-01-27T10:06:22.337Z,-77
2018-01-27T10:07:21.792Z,-76
2018-01-27T10:08:21.594Z,-78
2018-01-27T10:09:51.478Z,-78
2018-01-27T10:10:26.128Z,-76
2018-01-27T10:11:32.221Z,-76
2018-01-27T10:12:26.259Z,-77
2018-01-27T10:13:23.509Z,-77
2018-01-27T10:14:21.841Z,-79
2018-01-27T10:15:20.946Z,-78
2018-01-27T10:16:24.375Z,-77
2018-01-27T10:17:22.534Z,-81
2018-01-27T10:18:19.748Z,-79
2018-01-27T10:19:52.950Z,-80
2018-01-27T10:20:21.294Z,-80
2018-01-27T10:21:21.376Z,-80
2018-01-27T10:22:21.629Z,-80
2018-01-27T10:23:21.470Z,-78
2018-01-27T10:24:23.183Z,-78
2018-01-27T10:25:25.929Z,-78
2018-01-27T10:26:29.611Z,-78
2018-01-27T10:27:21.688Z,-78
2018-01-27T10:28:26.669Z,-78
2018-01-27T10:29:23.124Z,-78
2018-01-27T10:30:23.526Z,-80
2018-01-27T10:31:20.358Z,-80
2018-01-27T10:32:25.580Z,-80
2018-01-27T10:33:20.990Z,-80
2018-01-27T10:34:20.693Z,-80
2018-01-27T10:35:23.179Z,-78
2018-01-27T10:36:25.258Z,-75
2018-01-27T10:37:22.854Z,-78
2018-01-27T10:38:22.067Z,-78
2018-01-27T10:39:19.547Z,-78
2018-01-27T10:40:21.437Z,-78
2018-01-27T10:41:21.991Z,-78
2018-01-27T10:42:22.013Z,-80
2018-01-27T10:43:22.451Z,-80
2018-01-27T10:44:23.951Z,-80
2018-01-27T10:45:22.405Z,-80
2018-01-27T10:46:21.644Z,-81
2018-01-27T10:47:22.089Z,-80
2018-01-27T10:48:20.938Z,-80
2018-01-27T10:49:23.597Z,-80
2018-01-27T10:50:22.242Z,-80
2018-01-27T10:51:22.587Z,-80
2018-01-27T10:52:22.423Z,-80
2018-01-27T10:53:21.761Z,-80
2018-01-27T10:54:22.791Z,-79
2018-01-27T10:55:20.751Z,-79
2018-01-27T10:56:21.742Z,-79
2018-01-27T10:57:22.160Z,-77
2018-01-27T10:58:23.174Z,-77
2018-01-27T10:59:30.184Z,-78
2018-01-27T11:00:24.739Z,-77
2018-01-27T11:01:21.509Z,-77
2018-01-27T11:02:21.502Z,-77
2018-01-27T11:03:20.828Z,-77
2018-01-27T11:04:22.592Z,-75
2018-01-27T11:05:20.971Z,-75
2018-01-27T11:06:20.172Z,-78
2018-01-27T11:07:26.158Z,-77
2018-01-27T11:08:24.185Z,-77
2018-01-27T11:09:23.088Z,-77
2018-01-27T11:10:23.274Z,-77
2018-01-27T11:11:22.979Z,-78
2018-01-27T11:12:20.301Z,-78
2018-01-27T11:13:24.363Z,-76
2018-01-27T11:14:21.936Z,-76
2018-01-27T11:15:21.070Z,-75
2018-01-27T11:16:21.275Z,-76
2018-01-27T11:17:24.384Z,-76
2018-01-27T11:18:21.461Z,-80
2018-01-27T11:19:22.582Z,-80
2018-01-27T11:20:21.918Z,-80
2018-01-27T11:21:22.398Z,-79
2018-01-27T11:22:20.576Z,-79
2018-01-27T11:23:23.918Z,-80
2018-01-27T11:24:21.097Z,-79
2018-01-27T11:25:20.662Z,-78
2018-01-27T11:26:23.059Z,-78
2018-01-27T11:27:27.098Z,-80
2018-01-27T11:28:36.034Z,-80
2018-01-27T11:29:30.740Z,-80
2018-01-27T11:30:21.050Z,-80
2018-01-27T11:31:24.243Z,-80
2018-01-27T11:32:23.574Z,-80
2018-01-27T11:33:23.439Z,-79
2018-01-27T11:34:33.539Z,-80
2018-01-27T11:35:24.011Z,-77
2018-01-27T11:36:24.416Z,-80
2018-01-27T11:37:30.540Z,-80
2018-01-27T11:38:19.661Z,-80
2018-01-27T11:39:19.597Z,-80
2018-01-27T11:40:19.999Z,-79
2018-01-27T11:41:19.664Z,-77
2018-01-27T11:42:19.772Z,-78
2018-01-27T11:43:20.241Z,-77
2018-01-27T11:44:20.034Z,-76
2018-01-27T11:45:19.997Z,-77
2018-01-27T11:46:20.283Z,-77
2018-01-27T11:47:20.071Z,-77
2018-01-27T11:48:19.768Z,-77
2018-01-27T11:49:19.924Z,-77
2018-01-27T11:50:20.126Z,-77
2018-01-27T11:51:20.260Z,-77
2018-01-27T11:52:20.051Z,-77
2018-01-27T11:53:20.127Z,-77
2018-01-27T11:54:19.868Z,-77
2018-01-27T11:55:20.192Z,-77
2018-01-27T11:56:20.057Z,-79
2018-01-27T11:57:20.158Z,-77
2018-01-27T11:58:19.862Z,-76
2018-01-27T11:59:19.894Z,-76
2018-01-27T12:00:19.919Z,-76
2018-01-27T12:01:19.946Z,-76
2018-01-27T12:02:19.874Z,-78
2018-01-27T12:03:20.122Z,-78
2018-01-27T12:04:19.863Z,-77
2018-01-27T12:05:20.083Z,-76
2018-01-27T12:06:19.754Z,-77
2018-01-27T12:07:20.264Z,-77
2018-01-27T12:08:20.212Z,-77
2018-01-27T12:09:19.973Z,-78
2018-01-27T12:10:20.516Z,-77
2018-01-27T12:11:20.090Z,-77
2018-01-27T12:12:19.866Z,-77
2018-01-27T12:13:20.061Z,-77
2018-01-27T12:14:19.763Z,-78
2018-01-27T12:15:19.963Z,-78
2018-01-27T12:16:20.084Z,-78
2018-01-27T12:17:19.948Z,-77
2018-01-27T12:18:20.056Z,-78
2018-01-27T12:19:20.090Z,-81
2018-01-27T12:20:19.747Z,-81
2018-01-27T12:21:20.104Z,-80
2018-01-27T12:22:20.023Z,-81
2018-01-27T12:23:20.269Z,-79
2018-01-27T12:24:20.001Z,-80
2018-01-27T12:25:19.822Z,-80
2018-01-27T12:26:19.965Z,-80
2018-01-27T12:27:20.209Z,-78
2018-01-27T12:30:22.110Z,-77
2018-01-27T12:31:20.128Z,-78
2018-01-27T12:32:20.011Z,-78
2018-01-27T12:33:20.180Z,-75
2018-01-27T12:34:20.103Z,-78
2018-01-27T12:35:20.144Z,-76
2018-01-27T12:36:20.102Z,-76
2018-01-27T12:37:20.033Z,-78
2018-01-27T12:38:19.699Z,-78
2018-01-27T12:39:20.154Z,-78
2018-01-27T12:40:20.178Z,-76
2018-01-27T12:41:20.005Z,-77
2018-01-27T12:42:20.025Z,-77
2018-01-27T12:43:19.872Z,-77
2018-01-27T12:44:19.987Z,-77
2018-01-27T12:45:20.145Z,-78
2018-01-27T12:46:19.925Z,-76
2018-01-27T12:47:19.990Z,-78
2018-01-27T12:48:19.974Z,-76
2018-01-27T12:49:20.084Z,-78
2018-01-27T12:50:19.873Z,-78
2018-01-27T12:51:19.958Z,-77
2018-01-27T12:52:20.382Z,-77
2018-01-27T12:53:20.334Z,-76
2018-01-27T12:54:20.524Z,-76
2018-01-27T12:55:20.173Z,-75
2018-01-27T12:56:20.002Z,-76
2018-01-27T12:57:20.196Z,-77
2018-01-27T12:58:20.216Z,-78
2018-01-27T12:59:19.980Z,-78
2018-01-27T13:00:20.354Z,-77
2018-01-27T13:01:20.293Z,-76
2018-01-27T13:02:20.240Z,-77
2018-01-27T13:03:20.462Z,-78
2018-01-27T13:04:20.298Z,-78
2018-01-27T13:05:20.370Z,-78
2018-01-27T13:06:20.379Z,-78
2018-01-27T13:07:20.282Z,-76
2018-01-27T13:08:20.163Z,-78
2018-01-27T13:09:20.143Z,-78
2018-01-27T13:10:20.119Z,-79
2018-01-27T13:11:20.194Z,-79
2018-01-27T13:12:19.988Z,-81
2018-01-27T13:13:20.045Z,-81
2018-01-27T13:14:19.950Z,-80
2018-01-27T13:15:23.098Z,-78
2018-01-27T13:16:20.348Z,-78
2018-01-27T13:17:20.352Z,-78
2018-01-27T13:18:20.242Z,-78
2018-01-27T13:19:20.262Z,-78
2018-01-27T13:20:20.347Z,-79
2018-01-27T13:21:20.386Z,-78
2018-01-27T13:22:20.244Z,-78
2018-01-27T13:23:20.283Z,-79
2018-01-27T13:24:20.193Z,-79
2018-01-27T13:25:20.272Z,-81
2018-01-27T13:26:20.163Z,-78
2018-01-27T13:27:24.310Z,-80
2018-01-27T13:28:19.992Z,-79
2018-01-27T13:29:20.338Z,-80
2018-01-27T13:30:20.251Z,-81
2018-01-27T13:31:20.062Z,-80
2018-01-27T13:32:20.307Z,-79
2018-01-27T13:33:20.253Z,-80
2018-01-27T13:34:20.128Z,-81
2018-01-27T13:35:20.205Z,-80
2018-01-27T13:36:19.982Z,-80
2018-01-27T13:37:20.194Z,-80
2018-01-27T13:38:19.946Z,-78
2018-01-27T13:39:20.133Z,-78
2018-01-27T13:40:20.088Z,-78
2018-01-27T13:41:19.890Z,-80
2018-01-27T13:42:19.907Z,-78
2018-01-27T13:43:20.008Z,-78
2018-01-27T13:44:20.167Z,-80
2018-01-27T13:45:20.327Z,-78
2018-01-27T13:46:20.486Z,-80
2018-01-27T13:47:20.191Z,-78
2018-01-27T13:48:20.198Z,-78
2018-01-27T13:49:20.056Z,-79
2018-01-27T13:50:19.956Z,-78
2018-01-27T13:51:20.238Z,-79
2018-01-27T13:52:20.417Z,-78
2018-01-27T13:53:20.423Z,-78
2018-01-27T13:54:20.670Z,-80